Time;durP1;ratioP1;P1;durP2;ratioP2;P2;SDS_P1;SDS_P2;PMS_P1;PMS_P2;Temp;Humidity;BMP_temperature;BMP_pressure;BME280_temperature;BME280_humidity;BME280_pressure;Samples;Min_cycle;Max_cycle;Signal;HPM_P1;HPM_P2
2022/03/27 00:00:19;;;;;;;;;;;23.00;32.10;;;;;;696167;28;1636;-83
2022/03/27 00:00:40;;;;;;;;;;;23.00;31.80;;;;;;695610;28;1308;-86
2022/03/27 00:01:03;;;;;;;;;;;22.90;30.10;;;;;;692480;28;1537;-83
2022/03/27 00:01:27;;;;;;;;;;;22.90;29.00;;;;;;691000;28;1695;-85
2022/03/27 00:01:50;;;;;;;;;;;22.90;29.30;;;;;;690792;28;1616;-84
2022/03/27 00:02:11;;;;;;;;;;;22.80;33.70;;;;;;691802;28;1472;-83
2022/03/27 00:02:31;;;;;;;;;;;22.80;33.30;;;;;;694162;28;1248;-88
2022/03/27 00:02:52;;;;;;;;;;;22.80;30.10;;;;;;692828;28;1596;-85
2022/03/27 00:03:12;;;;;;;;;;;20.00;29.90;;;;;;688649;28;1351;-84
2022/03/27 00:03:33;;;;;;;;;;;22.80;31.10;;;;;;688542;28;1506;-82
2022/03/27 00:03:54;;;;;;;;;;;22.80;31.80;;;;;;688226;28;1634;-83
2022/03/27 00:04:15;;;;;;;;;;;22.90;31.70;;;;;;686114;28;1466;-81
2022/03/27 00:04:35;;;;;;;;;;;22.80;32.10;;;;;;690267;28;1955;-85
2022/03/27 00:04:56;;;;;;;;;;;22.80;32.90;;;;;;689517;28;1432;-86
2022/03/27 00:05:17;;;;;;;;;;;22.80;31.70;;;;;;693183;28;1423;-86
2022/03/27 00:05:37;;;;;;;;;;;22.80;32.30;;;;;;693021;28;1600;-83
2022/03/27 00:05:58;;;;;;;;;;;22.80;30.80;;;;;;692236;28;1842;-82
2022/03/27 00:06:19;;;;;;;;;;;22.80;34.70;;;;;;690843;28;1479;-83
2022/03/27 00:06:39;;;;;;;;;;;22.70;32.80;;;;;;691426;28;1471;-86
2022/03/27 00:07:00;;;;;;;;;;;22.80;32.80;;;;;;688581;28;1467;-83
2022/03/27 00:07:20;;;;;;;;;;;22.80;32.40;;;;;;688711;28;1460;-83
2022/03/27 00:07:41;;;;;;;;;;;22.80;32.30;;;;;;688599;28;1333;-81
2022/03/27 00:08:02;;;;;;;;;;;22.80;31.40;;;;;;688006;28;1539;-81
2022/03/27 00:08:23;;;;;;;;;;;22.80;32.80;;;;;;688991;28;1438;-81
2022/03/27 00:08:43;;;;;;;;;;;22.70;32.00;;;;;;688927;28;1856;-81
2022/03/27 00:09:04;;;;;;;;;;;22.80;30.70;;;;;;690781;28;1506;-82
2022/03/27 00:09:25;;;;;;;;;;;22.70;30.50;;;;;;691583;28;1451;-79
2022/03/27 00:09:45;;;;;;;;;;;22.80;30.40;;;;;;694293;28;810;-83
2022/03/27 00:10:06;;;;;;;;;;;22.70;31.00;;;;;;691156;28;1447;-88
2022/03/27 00:10:27;;;;;;;;;;;22.70;30.00;;;;;;688132;28;1349;-84
2022/03/27 00:11:28;;;;;;;;;;;22.70;30.50;;;;;;688454;28;1193;-83
2022/03/27 00:11:49;;;;;;;;;;;22.70;31.70;;;;;;689065;28;1402;-81
2022/03/27 00:12:09;;;;;;;;;;;22.70;31.80;;;;;;688669;28;1539;-82
2022/03/27 00:12:31;;;;;;;;;;;24.50;32.20;;;;;;691197;28;1128;-87
2022/03/27 00:12:51;;;;;;;;;;;22.60;29.80;;;;;;691762;28;1622;-81
2022/03/27 00:13:12;;;;;;;;;;;22.70;29.10;;;;;;691363;28;1847;-80
2022/03/27 00:13:32;;;;;;;;;;;22.60;29.10;;;;;;690317;28;1509;-83
2022/03/27 00:13:54;;;;;;;;;;;22.60;30.00;;;;;;694012;28;1436;-82
2022/03/27 00:14:14;;;;;;;;;;;22.60;28.30;;;;;;691010;28;1256;-88
2022/03/27 00:14:35;;;;;;;;;;;22.60;31.60;;;;;;690643;28;1566;-85
2022/03/27 00:14:55;;;;;;;;;;;22.70;30.70;;;;;;688319;28;1571;-83
2022/03/27 00:15:17;;;;;;;;;;;22.60;31.30;;;;;;687847;28;1503;-84
2022/03/27 00:15:38;;;;;;;;;;;22.50;30.40;;;;;;688438;28;1439;-84
2022/03/27 00:15:59;;;;;;;;;;;22.60;30.20;;;;;;685311;28;1557;-83
2022/03/27 00:16:20;;;;;;;;;;;22.80;31.10;;;;;;685999;28;1658;-84
2022/03/27 00:16:40;;;;;;;;;;;22.60;30.30;;;;;;686325;28;814;-81
2022/03/27 00:17:04;;;;;;;;;;;22.60;30.40;;;;;;688874;28;1523;-89
2022/03/27 00:17:24;;;;;;;;;;;22.60;31.60;;;;;;690542;28;1486;-88
2022/03/27 00:17:45;;;;;;;;;;;22.60;34.50;;;;;;695684;28;1734;-84
2022/03/27 00:18:05;;;;;;;;;;;22.60;32.30;;;;;;695526;28;2042;-84
2022/03/27 00:18:26;;;;;;;;;;;22.60;31.20;;;;;;693162;28;1403;-83
2022/03/27 00:18:47;;;;;;;;;;;22.60;30.50;;;;;;695678;28;1647;-82
2022/03/27 00:19:07;;;;;;;;;;;22.60;30.70;;;;;;692960;28;1488;-83
2022/03/27 00:19:28;;;;;;;;;;;22.60;30.10;;;;;;695508;28;1493;-82
2022/03/27 00:19:49;;;;;;;;;;;22.60;30.70;;;;;;691072;28;1593;-82
2022/03/27 00:20:09;;;;;;;;;;;22.60;30.00;;;;;;688289;28;1448;-86
2022/03/27 00:20:30;;;;;;;;;;;22.60;29.50;;;;;;688622;28;1567;-81
2022/03/27 00:20:51;;;;;;;;;;;22.60;29.80;;;;;;688672;28;1464;-85
2022/03/27 00:21:13;;;;;;;;;;;21.80;30.00;;;;;;691204;28;1226;-79
2022/03/27 00:21:34;;;;;;;;;;;22.60;30.20;;;;;;691535;28;1618;-80
2022/03/27 00:21:54;;;;;;;;;;;22.60;30.20;;;;;;692453;28;1451;-78
2022/03/27 00:22:15;;;;;;;;;;;22.60;29.50;;;;;;691109;28;1367;-78
2022/03/27 00:22:41;;;;;;;;;;;19.50;27.90;;;;;;690194;28;1334;-79
2022/03/27 00:23:02;;;;;;;;;;;22.60;29.10;;;;;;692378;28;1595;-83
2022/03/27 00:23:23;;;;;;;;;;;22.60;29.80;;;;;;693503;28;1455;-79
2022/03/27 00:23:43;;;;;;;;;;;22.60;29.50;;;;;;695669;28;1470;-83
2022/03/27 00:24:04;;;;;;;;;;;22.60;30.40;;;;;;695317;28;1458;-82
2022/03/27 00:24:25;;;;;;;;;;;22.60;28.90;;;;;;695628;28;1521;-85
2022/03/27 00:24:46;;;;;;;;;;;22.50;28.90;;;;;;692794;28;1501;-82
2022/03/27 00:25:07;;;;;;;;;;;22.50;29.00;;;;;;691951;28;1447;-83
2022/03/27 00:25:27;;;;;;;;;;;22.60;29.00;;;;;;691503;28;886;-82
2022/03/27 00:25:50;;;;;;;;;;;21.40;28.30;;;;;;691903;28;1503;-83
2022/03/27 00:26:10;;;;;;;;;;;22.50;29.30;;;;;;691236;28;1479;-82
2022/03/27 00:26:31;;;;;;;;;;;22.50;28.60;;;;;;694653;28;1517;-84
2022/03/27 00:26:52;;;;;;;;;;;22.50;29.20;;;;;;696380;28;1265;-84
2022/03/27 00:27:12;;;;;;;;;;;22.50;32.10;;;;;;694548;28;1596;-86
2022/03/27 00:27:33;;;;;;;;;;;22.50;29.80;;;;;;692258;28;1430;-85
2022/03/27 00:27:57;;;;;;;;;;;22.50;29.70;;;;;;692819;28;1775;-86
2022/03/27 00:28:18;;;;;;;;;;;22.80;29.20;;;;;;691819;28;1814;-85
2022/03/27 00:28:38;;;;;;;;;;;22.40;28.60;;;;;;695472;28;1419;-83
2022/03/27 00:28:59;;;;;;;;;;;22.50;29.60;;;;;;697289;28;983;-81
2022/03/27 00:29:22;;;;;;;;;;;22.50;28.20;;;;;;698358;28;893;-81
2022/03/27 00:29:42;;;;;;;;;;;22.40;28.50;;;;;;699192;28;809;-82
2022/03/27 00:30:03;;;;;;;;;;;22.40;28.30;;;;;;694930;28;1082;-83
2022/03/27 00:30:24;;;;;;;;;;;22.50;29.20;;;;;;696781;28;841;-83
2022/03/27 00:30:44;;;;;;;;;;;22.50;29.70;;;;;;694442;28;884;-84
2022/03/27 00:31:06;;;;;;;;;;;22.50;28.40;;;;;;694638;28;1116;-83
2022/03/27 00:31:29;;;;;;;;;;;22.40;29.20;;;;;;694356;28;802;-82
2022/03/27 00:31:51;;;;;;;;;;;22.50;28.80;;;;;;696876;28;1242;-81
2022/03/27 00:32:11;;;;;;;;;;;22.50;29.00;;;;;;697573;28;1379;-82
2022/03/27 00:32:32;;;;;;;;;;;22.50;28.70;;;;;;697404;28;931;-80
2022/03/27 00:32:53;;;;;;;;;;;22.40;29.10;;;;;;698590;28;925;-81
2022/03/27 00:33:18;;;;;;;;;;;22.40;28.00;;;;;;701063;28;982;-82
2022/03/27 00:33:40;;;;;;;;;;;22.40;36.10;;;;;;696657;28;794;-80
2022/03/27 00:34:00;;;;;;;;;;;22.40;28.20;;;;;;696731;28;802;-87
2022/03/27 00:34:21;;;;;;;;;;;22.40;28.20;;;;;;695588;28;1168;-78
2022/03/27 00:34:42;;;;;;;;;;;22.40;28.10;;;;;;694950;28;826;-83
2022/03/27 00:35:03;;;;;;;;;;;22.40;28.60;;;;;;693381;28;898;-85
2022/03/27 00:35:26;;;;;;;;;;;22.30;30.70;;;;;;693224;28;1388;-81
2022/03/27 00:35:47;;;;;;;;;;;22.30;28.10;;;;;;692860;28;1190;-83
2022/03/27 00:36:10;;;;;;;;;;;22.40;30.70;;;;;;694119;28;838;-85
2022/03/27 00:36:30;;;;;;;;;;;22.40;28.20;;;;;;693942;28;1374;-83
2022/03/27 00:36:51;;;;;;;;;;;22.40;30.10;;;;;;693409;28;1191;-84
2022/03/27 00:37:12;;;;;;;;;;;22.40;32.30;;;;;;692296;28;1318;-84
2022/03/27 00:37:34;;;;;;;;;;;22.40;30.00;;;;;;688795;28;1109;-84
2022/03/27 00:37:57;;;;;;;;;;;20.80;27.90;;;;;;688440;28;1942;-87
2022/03/27 00:38:18;;;;;;;;;;;22.40;27.70;;;;;;688926;28;1103;-91
2022/03/27 00:38:39;;;;;;;;;;;22.40;29.90;;;;;;687926;28;1373;-85
2022/03/27 00:39:00;;;;;;;;;;;22.40;29.40;;;;;;685699;28;1211;-88
2022/03/27 00:39:20;;;;;;;;;;;22.40;33.30;;;;;;686092;28;1132;-85
2022/03/27 00:39:41;;;;;;;;;;;22.60;30.30;;;;;;686136;28;1212;-88
2022/03/27 00:40:03;;;;;;;;;;;23.50;32.10;;;;;;690553;28;1389;-81
2022/03/27 00:40:27;;;;;;;;;;;22.50;29.30;;;;;;693706;28;801;-85
2022/03/27 00:42:04;;;;;;;;;;;22.40;27.80;;;;;;697598;28;668;-87
2022/03/27 00:42:27;;;;;;;;;;;22.40;28.10;;;;;;695360;28;1076;-85
2022/03/27 00:42:48;;;;;;;;;;;22.60;31.50;;;;;;698128;28;924;-86
2022/03/27 00:43:09;;;;;;;;;;;22.40;31.20;;;;;;694738;28;1098;-89
2022/03/27 00:43:33;;;;;;;;;;;22.30;29.80;;;;;;692631;28;1391;-92
2022/03/27 00:43:54;;;;;;;;;;;19.60;26.60;;;;;;694838;28;1259;-87
2022/03/27 00:44:14;;;;;;;;;;;22.40;28.70;;;;;;695492;28;1170;-92
2022/03/27 00:44:38;;;;;;;;;;;22.40;29.20;;;;;;693109;28;1101;-87
2022/03/27 00:44:59;;;;;;;;;;;21.10;28.00;;;;;;692754;28;1129;-87
2022/03/27 00:45:19;;;;;;;;;;;22.50;30.60;;;;;;692056;28;772;-81
2022/03/27 00:45:40;;;;;;;;;;;22.30;31.50;;;;;;691595;28;763;-84
2022/03/27 00:46:00;;;;;;;;;;;22.30;28.50;;;;;;690570;28;1052;-89
2022/03/27 00:46:21;;;;;;;;;;;22.40;28.00;;;;;;690537;28;1411;-91
2022/03/27 00:46:41;;;;;;;;;;;22.30;29.40;;;;;;695827;28;1086;-92
2022/03/27 00:47:02;;;;;;;;;;;22.30;28.60;;;;;;695039;28;1276;-88
2022/03/27 00:47:23;;;;;;;;;;;22.40;29.40;;;;;;692235;28;1230;-88
2022/03/27 00:47:44;;;;;;;;;;;22.30;30.60;;;;;;691512;28;1334;-89
2022/03/27 00:48:05;;;;;;;;;;;22.30;30.80;;;;;;692805;28;1434;-88
2022/03/27 00:48:26;;;;;;;;;;;22.70;29.80;;;;;;694550;28;1393;-86
2022/03/27 00:48:47;;;;;;;;;;;22.30;28.70;;;;;;689689;28;1287;-90
2022/03/27 00:49:10;;;;;;;;;;;22.30;28.80;;;;;;695423;28;1362;-87
2022/03/27 00:49:30;;;;;;;;;;;22.30;30.90;;;;;;696375;28;1458;-85
2022/03/27 00:49:51;;;;;;;;;;;22.40;32.20;;;;;;697292;28;1323;-85
2022/03/27 00:50:11;;;;;;;;;;;22.30;28.80;;;;;;697335;28;782;-84
2022/03/27 00:50:32;;;;;;;;;;;22.30;27.00;;;;;;696291;28;1351;-93
2022/03/27 00:50:56;;;;;;;;;;;22.20;29.20;;;;;;693916;28;1276;-86
2022/03/27 00:51:19;;;;;;;;;;;22.60;28.60;;;;;;695493;28;1283;-91
2022/03/27 00:51:39;;;;;;;;;;;23.60;32.70;;;;;;693458;28;1302;-85
2022/03/27 00:52:00;;;;;;;;;;;22.20;28.80;;;;;;688838;28;1428;-89
2022/03/27 00:52:30;;;;;;;;;;;22.20;29.10;;;;;;693448;28;1122;-87
2022/03/27 00:52:50;;;;;;;;;;;22.40;26.60;;;;;;697293;28;1128;-85
2022/03/27 00:53:12;;;;;;;;;;;22.70;31.20;;;;;;695502;28;846;-84
2022/03/27 00:53:38;;;;;;;;;;;22.40;27.90;;;;;;697308;28;1310;-83
2022/03/27 00:53:59;;;;;;;;;;;22.10;27.60;;;;;;699628;28;802;-85
2022/03/27 00:54:20;;;;;;;;;;;22.30;29.80;;;;;;696967;28;1105;-88
2022/03/27 00:54:41;;;;;;;;;;;22.30;26.10;;;;;;694222;28;884;-88
2022/03/27 00:55:01;;;;;;;;;;;22.30;31.10;;;;;;694142;28;1090;-82
2022/03/27 00:55:22;;;;;;;;;;;22.50;28.70;;;;;;693217;28;775;-84
2022/03/27 00:55:46;;;;;;;;;;;22.20;25.30;;;;;;691430;28;1444;-90
2022/03/27 00:56:07;;;;;;;;;;;22.10;25.00;;;;;;691167;28;1248;-85
2022/03/27 00:56:28;;;;;;;;;;;22.10;28.10;;;;;;690159;28;1214;-89
2022/03/27 00:56:49;;;;;;;;;;;22.10;28.70;;;;;;691673;28;1201;-87
2022/03/27 00:57:09;;;;;;;;;;;22.00;29.10;;;;;;688680;28;1186;-88
2022/03/27 00:57:30;;;;;;;;;;;22.10;25.70;;;;;;689066;28;863;-86
2022/03/27 00:57:51;;;;;;;;;;;22.00;25.20;;;;;;689425;28;1890;-88
2022/03/27 00:58:12;;;;;;;;;;;22.00;25.40;;;;;;689175;28;1298;-85
2022/03/27 00:58:33;;;;;;;;;;;21.00;27.50;;;;;;689247;28;826;-85
2022/03/27 00:58:54;;;;;;;;;;;22.00;28.20;;;;;;689711;28;858;-83
2022/03/27 00:59:14;;;;;;;;;;;22.10;25.60;;;;;;691934;28;1093;-86
2022/03/27 00:59:35;;;;;;;;;;;22.10;27.50;;;;;;691817;28;1514;-84
2022/03/27 00:59:56;;;;;;;;;;;19.50;25.80;;;;;;691784;28;890;-85
2022/03/27 01:00:45;;;;;;;;;;;22.00;27.40;;;;;;691930;28;881;-87
2022/03/27 01:01:21;;;;;;;;;;;22.00;25.40;;;;;;693165;28;898;-85
2022/03/27 01:01:42;;;;;;;;;;;22.10;25.50;;;;;;691912;28;760;-86
2022/03/27 01:02:03;;;;;;;;;;;22.10;25.90;;;;;;689428;28;1455;-86
2022/03/27 01:02:26;;;;;;;;;;;22.10;28.30;;;;;;689331;28;1201;-85
2022/03/27 01:02:47;;;;;;;;;;;22.30;28.30;;;;;;689449;28;810;-88
2022/03/27 01:03:07;;;;;;;;;;;22.50;27.50;;;;;;692346;28;842;-86
2022/03/27 01:03:28;;;;;;;;;;;22.10;27.70;;;;;;692677;28;1435;-83
2022/03/27 01:03:49;;;;;;;;;;;22.10;26.70;;;;;;690599;28;1215;-81
2022/03/27 01:04:10;;;;;;;;;;;22.10;26.70;;;;;;691566;28;807;-85
2022/03/27 01:04:31;;;;;;;;;;;22.10;28.30;;;;;;691345;28;877;-82
2022/03/27 01:04:53;;;;;;;;;;;22.10;28.90;;;;;;691358;28;866;-86
2022/03/27 01:05:14;;;;;;;;;;;21.40;26.20;;;;;;694054;28;1412;-86
2022/03/27 01:05:35;;;;;;;;;;;22.10;25.90;;;;;;691346;28;1323;-88
2022/03/27 01:05:58;;;;;;;;;;;22.10;26.20;;;;;;694411;28;877;-91
2022/03/27 01:06:32;;;;;;;;;;;18.80;25.60;;;;;;692272;28;1411;-84
2022/03/27 01:06:52;;;;;;;;;;;22.10;25.60;;;;;;691453;28;1314;-85
2022/03/27 01:07:16;;;;;;;;;;;22.20;28.50;;;;;;688690;28;1497;-81
2022/03/27 01:07:38;;;;;;;;;;;22.10;26.40;;;;;;688677;28;1150;-84
2022/03/27 01:08:05;;;;;;;;;;;22.10;26.20;;;;;;688596;28;1500;-87
2022/03/27 01:09:47;;;;;;;;;;;22.10;25.80;;;;;;694766;28;621;-82
2022/03/27 01:10:08;;;;;;;;;;;22.00;25.90;;;;;;694176;28;1212;-82
2022/03/27 01:10:28;;;;;;;;;;;22.10;25.90;;;;;;693412;28;1479;-81
2022/03/27 01:10:49;;;;;;;;;;;22.00;25.70;;;;;;693993;28;775;-80
2022/03/27 01:14:03;;;;;;;;;;;22.00;25.60;;;;;;696843;28;601;-82
2022/03/27 01:14:40;;;;;;;;;;;22.00;26.80;;;;;;693880;28;1470;-89
2022/03/27 01:15:01;;;;;;;;;;;22.00;26.00;;;;;;694166;28;1109;-83
2022/03/27 01:15:39;;;;;;;;;;;22.00;27.60;;;;;;693926;28;1113;-81
2022/03/27 01:16:00;;;;;;;;;;;22.00;25.90;;;;;;693988;28;1331;-87
2022/03/27 01:16:31;;;;;;;;;;;22.00;26.50;;;;;;694101;28;1340;-92
2022/03/27 01:17:02;;;;;;;;;;;21.00;25.30;;;;;;691539;28;1208;-91
2022/03/27 01:17:24;;;;;;;;;;;22.00;26.00;;;;;;688622;28;1240;-89
2022/03/27 01:17:45;;;;;;;;;;;22.10;26.50;;;;;;688716;28;807;-87
2022/03/27 01:18:12;;;;;;;;;;;22.00;27.00;;;;;;691954;28;1963;-93
2022/03/27 01:18:33;;;;;;;;;;;22.10;26.60;;;;;;693923;28;1245;-93
2022/03/27 01:18:53;;;;;;;;;;;22.10;26.90;;;;;;693937;28;1216;-83
2022/03/27 01:19:15;;;;;;;;;;;22.00;29.90;;;;;;695784;28;1289;-88
2022/03/27 01:19:39;;;;;;;;;;;22.00;27.10;;;;;;697000;28;790;-87
2022/03/27 01:20:03;;;;;;;;;;;22.00;28.70;;;;;;692357;28;1301;-87
2022/03/27 01:20:32;;;;;;;;;;;22.10;26.40;;;;;;688648;28;1267;-82
2022/03/27 01:20:53;;;;;;;;;;;22.10;26.10;;;;;;688744;28;515;-84
2022/03/27 01:21:14;;;;;;;;;;;22.00;31.10;;;;;;691254;28;810;-85
2022/03/27 01:21:35;;;;;;;;;;;22.00;28.00;;;;;;691285;28;865;-87
2022/03/27 01:21:56;;;;;;;;;;;22.10;26.50;;;;;;690650;28;1242;-81
2022/03/27 01:22:17;;;;;;;;;;;22.00;26.20;;;;;;692793;28;882;-80
2022/03/27 01:22:38;;;;;;;;;;;22.00;25.70;;;;;;693925;28;751;-87
2022/03/27 01:22:59;;;;;;;;;;;22.00;26.30;;;;;;691396;28;1215;-85
2022/03/27 01:23:19;;;;;;;;;;;22.00;27.00;;;;;;688776;28;1344;-87
2022/03/27 01:23:40;;;;;;;;;;;21.60;28.10;;;;;;689103;28;763;-84
2022/03/27 01:24:02;;;;;;;;;;;22.00;26.00;;;;;;691458;28;1128;-86
2022/03/27 01:24:23;;;;;;;;;;;22.10;29.70;;;;;;688676;28;1227;-87
2022/03/27 01:24:44;;;;;;;;;;;22.30;28.80;;;;;;688558;28;811;-84
2022/03/27 01:25:05;;;;;;;;;;;21.90;25.70;;;;;;691825;28;1341;-85
2022/03/27 01:25:30;;;;;;;;;;;22.10;26.20;;;;;;691078;28;1090;-84
2022/03/27 01:25:50;;;;;;;;;;;22.10;26.70;;;;;;691330;28;1234;-85
2022/03/27 01:28:08;;;;;;;;;;;21.90;24.90;;;;;;696989;28;637;-83
2022/03/27 01:28:29;;;;;;;;;;;21.80;24.50;;;;;;693279;28;1165;-84
2022/03/27 01:28:52;;;;;;;;;;;21.80;25.20;;;;;;691398;28;839;-87
2022/03/27 01:29:13;;;;;;;;;;;21.70;24.10;;;;;;691330;28;810;-82
2022/03/27 01:29:34;;;;;;;;;;;21.70;25.90;;;;;;691317;28;861;-83
2022/03/27 01:29:56;;;;;;;;;;;22.20;24.70;;;;;;688660;28;1080;-80
2022/03/27 01:30:16;;;;;;;;;;;21.70;27.40;;;;;;689530;28;881;-82
2022/03/27 01:30:37;;;;;;;;;;;21.70;25.10;;;;;;692326;28;857;-88
2022/03/27 01:30:58;;;;;;;;;;;21.70;24.40;;;;;;694132;28;866;-83
2022/03/27 01:31:19;;;;;;;;;;;21.70;24.80;;;;;;693898;28;759;-82
2022/03/27 01:31:40;;;;;;;;;;;21.70;25.00;;;;;;694586;28;822;-87
2022/03/27 01:32:00;;;;;;;;;;;21.90;24.80;;;;;;693969;28;1090;-85
2022/03/27 01:32:21;;;;;;;;;;;21.70;24.70;;;;;;691463;28;1274;-84
2022/03/27 01:32:42;;;;;;;;;;;21.70;27.40;;;;;;691312;28;1358;-87
2022/03/27 01:33:03;;;;;;;;;;;21.70;26.20;;;;;;691342;28;1360;-83
2022/03/27 01:33:23;;;;;;;;;;;21.60;25.00;;;;;;691357;28;1335;-87
2022/03/27 01:33:44;;;;;;;;;;;21.70;26.20;;;;;;691926;28;806;-89
2022/03/27 01:34:05;;;;;;;;;;;21.70;26.20;;;;;;694248;28;893;-87
2022/03/27 01:34:26;;;;;;;;;;;21.70;26.00;;;;;;691387;28;1125;-87
2022/03/27 01:34:47;;;;;;;;;;;22.00;27.70;;;;;;691897;28;810;-86
2022/03/27 01:35:10;;;;;;;;;;;21.60;26.20;;;;;;696932;28;1378;-86
2022/03/27 01:35:31;;;;;;;;;;;21.70;29.20;;;;;;696892;28;1024;-85
2022/03/27 01:35:52;;;;;;;;;;;21.60;27.40;;;;;;693976;28;1438;-88
2022/03/27 01:36:20;;;;;;;;;;;21.60;27.50;;;;;;694929;28;904;-86
2022/03/27 01:36:40;;;;;;;;;;;21.70;26.50;;;;;;693855;28;1318;-85
2022/03/27 01:37:04;;;;;;;;;;;21.70;27.10;;;;;;692467;28;755;-84
2022/03/27 01:37:24;;;;;;;;;;;21.70;26.30;;;;;;691392;28;1242;-88
2022/03/27 01:37:46;;;;;;;;;;;21.70;26.80;;;;;;690312;28;1256;-86
2022/03/27 01:38:07;;;;;;;;;;;18.50;24.40;;;;;;691480;28;1906;-92
2022/03/27 01:38:28;;;;;;;;;;;21.70;27.00;;;;;;692125;28;1280;-87
2022/03/27 01:38:52;;;;;;;;;;;21.70;26.00;;;;;;688773;28;1147;-82
2022/03/27 01:39:14;;;;;;;;;;;21.70;24.90;;;;;;691270;28;1125;-83
2022/03/27 01:39:35;;;;;;;;;;;21.70;25.40;;;;;;691269;28;823;-83
2022/03/27 01:39:56;;;;;;;;;;;21.70;25.10;;;;;;690456;28;791;-84
2022/03/27 01:40:17;;;;;;;;;;;21.60;25.40;;;;;;691259;28;1145;-83
2022/03/27 01:40:38;;;;;;;;;;;21.60;25.40;;;;;;692333;28;834;-83
2022/03/27 01:40:58;;;;;;;;;;;21.60;26.20;;;;;;694501;28;806;-84
2022/03/27 01:41:19;;;;;;;;;;;21.60;26.40;;;;;;693266;28;1216;-83
2022/03/27 01:41:40;;;;;;;;;;;21.70;25.80;;;;;;693955;28;799;-86
2022/03/27 01:42:01;;;;;;;;;;;21.70;25.60;;;;;;694030;28;870;-84
2022/03/27 01:42:22;;;;;;;;;;;21.70;25.80;;;;;;693942;28;1176;-82
2022/03/27 01:42:43;;;;;;;;;;;21.70;25.80;;;;;;693882;28;842;-83
2022/03/27 01:43:03;;;;;;;;;;;21.70;25.70;;;;;;693838;28;870;-83
2022/03/27 01:43:24;;;;;;;;;;;21.70;26.30;;;;;;694001;28;894;-83
2022/03/27 01:43:45;;;;;;;;;;;21.70;25.80;;;;;;696079;28;1180;-83
2022/03/27 01:44:10;;;;;;;;;;;21.70;26.10;;;;;;697285;28;845;-81
2022/03/27 01:44:31;;;;;;;;;;;21.70;25.70;;;;;;696837;28;1329;-85
2022/03/27 01:44:51;;;;;;;;;;;21.70;27.00;;;;;;693962;28;1128;-87
2022/03/27 01:45:12;;;;;;;;;;;21.70;26.50;;;;;;694044;28;755;-86
2022/03/27 01:45:33;;;;;;;;;;;21.70;25.80;;;;;;693182;28;1455;-87
2022/03/27 01:45:53;;;;;;;;;;;21.70;27.10;;;;;;691311;28;873;-85
2022/03/27 01:46:14;;;;;;;;;;;21.70;26.90;;;;;;691560;28;874;-84
2022/03/27 01:46:37;;;;;;;;;;;21.80;27.50;;;;;;694302;28;712;-84
2022/03/27 01:46:59;;;;;;;;;;;21.80;26.10;;;;;;694043;28;830;-85
2022/03/27 01:47:19;;;;;;;;;;;21.70;26.80;;;;;;695007;28;1185;-87
2022/03/27 01:47:40;;;;;;;;;;;21.70;27.20;;;;;;691739;28;1328;-83
2022/03/27 01:48:00;;;;;;;;;;;21.70;26.00;;;;;;691232;28;1106;-84
2022/03/27 01:48:21;;;;;;;;;;;21.70;27.20;;;;;;691917;28;1394;-83
2022/03/27 01:48:42;;;;;;;;;;;21.70;27.40;;;;;;692111;28;1298;-84
2022/03/27 01:49:04;;;;;;;;;;;21.70;27.00;;;;;;692076;28;1048;-85
2022/03/27 01:49:26;;;;;;;;;;;21.80;26.50;;;;;;692936;28;818;-87
2022/03/27 01:49:47;;;;;;;;;;;21.70;26.00;;;;;;696529;28;1350;-84
2022/03/27 01:50:08;;;;;;;;;;;21.70;26.60;;;;;;696916;28;1226;-87
2022/03/27 01:50:28;;;;;;;;;;;21.70;25.70;;;;;;697023;28;1181;-82
2022/03/27 01:51:00;;;;;;;;;;;21.70;26.40;;;;;;698490;28;834;-86
2022/03/27 01:51:21;;;;;;;;;;;21.70;25.50;;;;;;696923;28;1224;-87
2022/03/27 01:51:42;;;;;;;;;;;21.70;25.50;;;;;;692733;28;1201;-87
2022/03/27 01:52:03;;;;;;;;;;;21.70;25.80;;;;;;690229;28;858;-83
2022/03/27 01:52:23;;;;;;;;;;;21.60;25.40;;;;;;691787;28;1075;-85
2022/03/27 01:52:44;;;;;;;;;;;21.60;25.20;;;;;;691316;28;1188;-86
2022/03/27 01:53:04;;;;;;;;;;;21.60;25.30;;;;;;691858;28;875;-83
2022/03/27 01:53:25;;;;;;;;;;;21.60;24.70;;;;;;694384;28;1212;-83
2022/03/27 01:53:46;;;;;;;;;;;21.60;25.50;;;;;;696533;28;1185;-80
2022/03/27 01:54:10;;;;;;;;;;;21.60;24.70;;;;;;696214;28;802;-90
2022/03/27 01:54:31;;;;;;;;;;;21.60;24.40;;;;;;693943;28;826;-85
2022/03/27 01:54:51;;;;;;;;;;;21.60;25.50;;;;;;694319;28;1176;-84
2022/03/27 01:55:16;;;;;;;;;;;21.60;24.70;;;;;;696104;28;1646;-84
2022/03/27 01:55:38;;;;;;;;;;;21.60;24.80;;;;;;698558;28;885;-85
2022/03/27 01:55:58;;;;;;;;;;;21.60;24.50;;;;;;700237;28;853;-90
2022/03/27 01:56:19;;;;;;;;;;;21.60;25.40;;;;;;697565;28;1212;-88
2022/03/27 01:56:40;;;;;;;;;;;21.60;24.90;;;;;;696441;28;985;-86
2022/03/27 01:57:01;;;;;;;;;;;21.60;24.70;;;;;;694799;28;861;-87
2022/03/27 01:57:22;;;;;;;;;;;21.60;24.50;;;;;;694681;28;1064;-84
2022/03/27 01:57:43;;;;;;;;;;;21.60;24.60;;;;;;694199;28;869;-86
2022/03/27 01:58:06;;;;;;;;;;;21.60;24.50;;;;;;694538;28;1902;-85
2022/03/27 01:58:27;;;;;;;;;;;21.60;24.40;;;;;;693846;28;1268;-84
2022/03/27 01:58:47;;;;;;;;;;;21.60;25.00;;;;;;694255;28;775;-88
2022/03/27 01:59:08;;;;;;;;;;;21.60;25.40;;;;;;694156;28;767;-85
2022/03/27 01:59:29;;;;;;;;;;;21.60;24.60;;;;;;691428;28;1142;-87
2022/03/27 01:59:50;;;;;;;;;;;21.50;25.80;;;;;;691532;28;827;-83
2022/03/27 02:00:11;;;;;;;;;;;21.60;26.90;;;;;;691918;28;771;-83
2022/03/27 02:00:32;;;;;;;;;;;21.50;26.50;;;;;;691475;28;787;-91
2022/03/27 02:00:53;;;;;;;;;;;21.60;25.70;;;;;;691619;28;877;-84
2022/03/27 02:01:13;;;;;;;;;;;21.60;25.60;;;;;;691595;28;850;-80
2022/03/27 02:01:37;;;;;;;;;;;21.60;25.60;;;;;;694007;28;849;-81
2022/03/27 02:01:58;;;;;;;;;;;21.60;25.20;;;;;;693792;28;1209;-83
2022/03/27 02:02:23;;;;;;;;;;;21.60;26.10;;;;;;695015;28;855;-85
2022/03/27 02:02:44;;;;;;;;;;;21.60;26.00;;;;;;697283;28;822;-84
2022/03/27 02:03:04;;;;;;;;;;;21.60;27.70;;;;;;694380;28;1386;-90
2022/03/27 02:03:28;;;;;;;;;;;21.60;27.00;;;;;;694316;28;1343;-87
2022/03/27 02:03:48;;;;;;;;;;;21.60;26.80;;;;;;694357;28;830;-94
2022/03/27 02:04:09;;;;;;;;;;;21.60;26.20;;;;;;694830;28;862;-83
2022/03/27 02:04:29;;;;;;;;;;;21.60;26.80;;;;;;694581;28;901;-89
2022/03/27 02:04:51;;;;;;;;;;;21.60;26.80;;;;;;693310;28;1037;-85
2022/03/27 02:05:18;;;;;;;;;;;21.60;28.30;;;;;;695207;28;826;-93
2022/03/27 02:05:38;;;;;;;;;;;21.60;28.30;;;;;;698128;28;958;-93
2022/03/27 02:05:59;;;;;;;;;;;21.70;27.80;;;;;;696835;28;886;-88
2022/03/27 02:06:19;;;;;;;;;;;21.70;26.80;;;;;;694068;28;1351;-85
2022/03/27 02:06:40;;;;;;;;;;;21.70;27.60;;;;;;692576;28;1106;-90
2022/03/27 02:07:01;;;;;;;;;;;21.60;28.10;;;;;;694019;28;810;-84
2022/03/27 02:07:24;;;;;;;;;;;21.70;28.70;;;;;;693815;28;889;-91
2022/03/27 02:07:45;;;;;;;;;;;21.70;28.60;;;;;;688320;28;1102;-85
2022/03/27 02:08:13;;;;;;;;;;;21.70;28.20;;;;;;686201;28;1297;-93
2022/03/27 02:08:34;;;;;;;;;;;20.80;29.00;;;;;;685194;28;1206;-88
2022/03/27 02:08:55;;;;;;;;;;;21.70;28.30;;;;;;689014;28;1205;-95
2022/03/27 02:09:15;;;;;;;;;;;21.60;28.60;;;;;;688620;28;1206;-88
2022/03/27 02:09:36;;;;;;;;;;;21.70;26.90;;;;;;690287;28;1303;-87
2022/03/27 02:09:56;;;;;;;;;;;21.60;28.00;;;;;;691415;28;1274;-91
2022/03/27 02:10:18;;;;;;;;;;;23.70;31.60;;;;;;691538;28;909;-86
2022/03/27 02:10:45;;;;;;;;;;;21.60;28.20;;;;;;692277;28;914;-92
2022/03/27 02:11:06;;;;;;;;;;;21.60;26.30;;;;;;692861;28;1275;-91
2022/03/27 02:11:27;;;;;;;;;;;20.70;28.10;;;;;;690447;28;1220;-87
2022/03/27 02:11:47;;;;;;;;;;;21.80;29.70;;;;;;690515;28;874;-87
2022/03/27 02:12:09;;;;;;;;;;;21.70;30.20;;;;;;691728;28;1440;-90
2022/03/27 02:12:32;;;;;;;;;;;20.60;28.30;;;;;;691733;28;1363;-90
2022/03/27 02:12:59;;;;;;;;;;;22.10;29.00;;;;;;691590;28;1263;-91
2022/03/27 02:13:23;;;;;;;;;;;21.80;28.00;;;;;;692084;28;1114;-90
2022/03/27 02:13:43;;;;;;;;;;;21.80;28.10;;;;;;694199;28;1208;-92
2022/03/27 02:14:08;;;;;;;;;;;21.70;30.40;;;;;;694183;28;1330;-89
2022/03/27 02:14:29;;;;;;;;;;;21.70;27.80;;;;;;694008;28;1419;-85
2022/03/27 02:14:56;;;;;;;;;;;21.60;30.60;;;;;;689524;28;1315;-86
2022/03/27 02:15:24;;;;;;;;;;;21.60;27.90;;;;;;688633;28;1279;-88
2022/03/27 02:15:48;;;;;;;;;;;21.70;27.70;;;;;;686182;28;760;-86
2022/03/27 02:16:09;;;;;;;;;;;21.70;27.90;;;;;;689004;28;988;-85
2022/03/27 02:16:29;;;;;;;;;;;21.70;28.10;;;;;;693900;28;1331;-86
2022/03/27 02:16:50;;;;;;;;;;;21.70;28.50;;;;;;697106;28;854;-87
2022/03/27 02:17:10;;;;;;;;;;;21.70;28.90;;;;;;696678;28;864;-83
2022/03/27 02:17:31;;;;;;;;;;;21.70;27.70;;;;;;693925;28;1326;-87
2022/03/27 02:17:51;;;;;;;;;;;21.70;27.90;;;;;;691338;28;1156;-86
2022/03/27 02:18:13;;;;;;;;;;;21.70;27.30;;;;;;688119;28;1971;-85
2022/03/27 02:18:42;;;;;;;;;;;21.60;27.40;;;;;;685703;28;1236;-84
2022/03/27 02:19:09;;;;;;;;;;;21.70;27.50;;;;;;686542;28;1387;-86
2022/03/27 02:19:51;;;;;;;;;;;21.70;28.00;;;;;;688519;28;823;-86